createdAt,value
2019-03-17T00:00:05.550Z,81.50
2019-03-17T00:01:05.542Z,81.50
2019-03-17T00:02:05.528Z,80.99
2019-03-17T00:03:05.533Z,80.68
2019-03-17T00:04:05.507Z,80.68
2019-03-17T00:05:05.490Z,80.88
2019-03-17T00:06:07.799Z,81.29
2019-03-17T00:07:05.466Z,80.68
2019-03-17T00:08:05.499Z,80.99
2019-03-17T00:09:05.448Z,80.88
2019-03-17T00:10:05.436Z,80.68
2019-03-17T00:11:05.424Z,80.78
2019-03-17T00:12:05.425Z,80.37
2019-03-17T00:13:05.430Z,80.07
2019-03-17T00:14:05.388Z,80.37
2019-03-17T00:15:06.313Z,80.37
2019-03-17T00:16:05.373Z,80.21
2019-03-17T00:17:05.367Z,80.37
2019-03-17T00:18:05.376Z,80.58
2019-03-17T00:19:05.332Z,80.41
2019-03-17T00:20:05.324Z,80.37
2019-03-17T00:21:05.314Z,80.27
2019-03-17T00:22:05.303Z,80.07
2019-03-17T00:23:05.309Z,79.55
2019-03-17T00:24:05.275Z,79.66
2019-03-17T00:25:09.733Z,79.66
2019-03-17T00:26:05.253Z,79.75
2019-03-17T00:27:05.252Z,79.55
2019-03-17T00:28:05.240Z,79.55
2019-03-17T00:29:05.246Z,79.24
2019-03-17T00:30:05.211Z,79.04
2019-03-17T00:31:05.195Z,78.42
2019-03-17T00:32:05.194Z,78.22
2019-03-17T00:33:05.171Z,78.12
2019-03-17T00:34:05.192Z,77.91
2019-03-17T00:35:05.186Z,77.91
2019-03-17T00:36:05.143Z,77.91
2019-03-17T00:37:05.130Z,78.25
2019-03-17T00:38:05.137Z,78.32
2019-03-17T00:39:05.125Z,78.02
2019-03-17T00:40:05.102Z,78.16
2019-03-17T00:41:05.097Z,77.81
2019-03-17T00:42:05.085Z,77.50
2019-03-17T00:43:05.064Z,77.64
2019-03-17T00:44:05.086Z,77.81
2019-03-17T00:45:05.043Z,77.81
2019-03-17T00:46:05.038Z,77.91
2019-03-17T00:47:05.027Z,77.91
2019-03-17T00:48:05.016Z,78.22
2019-03-17T00:49:05.026Z,78.12
2019-03-17T00:50:04.995Z,77.81
2019-03-17T00:51:04.983Z,77.74
2019-03-17T00:52:04.965Z,77.81
2019-03-17T00:53:04.959Z,78.32
2019-03-17T00:54:04.955Z,78.02
2019-03-17T00:55:04.935Z,78.05
2019-03-17T00:56:04.924Z,78.22
2019-03-17T00:57:04.923Z,77.95
2019-03-17T00:58:04.951Z,77.95
2019-03-17T00:59:04.908Z,77.71
2019-03-17T01:00:04.883Z,77.95
2019-03-17T01:01:04.864Z,78.05
2019-03-17T01:02:04.929Z,78.12
2019-03-17T01:03:04.845Z,77.95
2019-03-17T01:04:04.862Z,78.25
2019-03-17T01:05:04.851Z,77.95
2019-03-17T01:06:04.885Z,78.16
2019-03-17T01:07:04.799Z,77.54
2019-03-17T01:08:04.806Z,77.71
2019-03-17T01:09:04.799Z,77.64
2019-03-17T01:10:04.767Z,77.95
2019-03-17T01:11:04.756Z,77.44
2019-03-17T01:12:04.743Z,77.74
2019-03-17T01:13:04.735Z,77.54
2019-03-17T01:14:04.760Z,77.33
2019-03-17T01:15:04.714Z,77.23
2019-03-17T01:16:04.697Z,77.44
2019-03-17T01:17:04.687Z,77.23
2019-03-17T01:18:04.680Z,77.64
2019-03-17T01:19:04.663Z,77.54
2019-03-17T01:20:04.677Z,77.54
2019-03-17T01:21:04.642Z,77.33
2019-03-17T01:22:04.633Z,77.54
2019-03-17T01:23:04.621Z,77.33
2019-03-17T01:24:04.631Z,76.92
2019-03-17T01:25:04.674Z,76.51
2019-03-17T01:26:04.586Z,76.10
2019-03-17T01:27:04.577Z,76.10
2019-03-17T01:28:04.576Z,76.41
2019-03-17T01:29:04.556Z,76.10
2019-03-17T01:30:04.571Z,76.41
2019-03-17T01:31:04.535Z,76.51
2019-03-17T01:32:04.551Z,75.90
2019-03-17T01:33:04.514Z,76.20
2019-03-17T01:34:04.500Z,75.69
2019-03-17T01:35:09.466Z,75.59
2019-03-17T01:36:05.651Z,75.49
2019-03-17T01:37:04.480Z,75.90
2019-03-17T01:38:04.459Z,75.69
2019-03-17T01:39:04.444Z,76.10
2019-03-17T01:40:04.467Z,75.69
2019-03-17T01:41:04.420Z,75.38
2019-03-17T01:42:04.415Z,75.59
2019-03-17T01:43:04.401Z,75.49
2019-03-17T01:44:04.392Z,75.38
2019-03-17T01:45:04.401Z,75.59
2019-03-17T01:46:04.373Z,75.90
2019-03-17T01:47:04.361Z,75.90
2019-03-17T01:48:04.356Z,75.08
2019-03-17T01:49:04.334Z,75.08
2019-03-17T01:50:04.338Z,75.18
2019-03-17T01:51:04.311Z,75.18
2019-03-17T01:52:04.310Z,75.18
2019-03-17T01:53:04.302Z,74.46
2019-03-17T01:54:04.293Z,75.49
2019-03-17T01:55:04.284Z,74.57
2019-03-17T01:56:04.258Z,74.46
2019-03-17T01:57:04.246Z,74.77
2019-03-17T01:58:04.245Z,74.66
2019-03-17T01:59:04.222Z,73.95
2019-03-17T02:00:04.240Z,74.12
2019-03-17T02:01:04.202Z,74.15
2019-03-17T02:02:04.192Z,74.77
2019-03-17T02:03:04.188Z,74.15
2019-03-17T02:04:04.174Z,74.66
2019-03-17T02:05:04.190Z,74.26
2019-03-17T02:06:04.147Z,74.15
2019-03-17T02:07:04.137Z,74.02
2019-03-17T02:08:04.121Z,74.26
2019-03-17T02:09:04.123Z,74.26
2019-03-17T02:10:04.128Z,74.26
2019-03-17T02:11:04.103Z,74.46
2019-03-17T02:12:04.082Z,74.26
2019-03-17T02:13:04.070Z,73.95
2019-03-17T02:14:04.060Z,73.95
2019-03-17T02:15:04.069Z,74.15
2019-03-17T02:16:04.112Z,74.15
2019-03-17T02:17:04.036Z,73.44
2019-03-17T02:18:04.013Z,74.15
2019-03-17T02:19:04.012Z,74.05
2019-03-17T02:20:03.992Z,73.23
2019-03-17T02:21:04.005Z,73.54
2019-03-17T02:22:04.026Z,73.33
2019-03-17T02:23:03.958Z,74.05
2019-03-17T02:24:03.954Z,73.64
2019-03-17T02:25:03.942Z,73.33
2019-03-17T02:26:03.946Z,74.15
2019-03-17T02:27:03.915Z,73.54
2019-03-17T02:28:03.920Z,73.44
2019-03-17T02:29:03.896Z,73.33
2019-03-17T02:30:03.882Z,73.02
2019-03-17T02:31:03.892Z,72.99
2019-03-17T02:32:03.864Z,73.13
2019-03-17T02:33:03.857Z,73.02
2019-03-17T02:34:03.847Z,72.92
2019-03-17T02:35:03.825Z,72.61
2019-03-17T02:36:03.835Z,72.72
2019-03-17T02:37:03.803Z,72.92
2019-03-17T02:38:03.798Z,73.02
2019-03-17T02:39:03.786Z,72.41
2019-03-17T02:40:03.774Z,72.61
2019-03-17T02:41:03.786Z,72.61
2019-03-17T02:42:03.755Z,72.51
2019-03-17T02:43:03.757Z,72.61
2019-03-17T02:44:03.830Z,72.51
2019-03-17T02:45:03.731Z,72.31
2019-03-17T02:46:03.738Z,72.41
2019-03-17T02:47:03.698Z,72.31
2019-03-17T02:48:03.682Z,71.80
2019-03-17T02:49:03.669Z,71.90
2019-03-17T02:50:03.666Z,71.69
2019-03-17T02:51:03.673Z,71.59
2019-03-17T02:52:03.635Z,71.69
2019-03-17T02:53:03.627Z,71.59
2019-03-17T02:54:03.616Z,72.00
2019-03-17T02:55:03.608Z,71.69
2019-03-17T02:56:03.618Z,71.56
2019-03-17T02:57:03.595Z,71.56
2019-03-17T02:58:03.575Z,71.69
2019-03-17T02:59:03.569Z,71.28
2019-03-17T03:00:03.559Z,71.39
2019-03-17T03:01:03.566Z,71.39
2019-03-17T03:02:03.544Z,71.28
2019-03-17T03:03:03.525Z,71.08
2019-03-17T03:04:03.514Z,71.18
2019-03-17T03:05:03.511Z,71.18
2019-03-17T03:06:03.507Z,70.87
2019-03-17T03:07:03.474Z,70.77
2019-03-17T03:08:03.476Z,70.64
2019-03-17T03:09:03.476Z,70.77
2019-03-17T03:10:03.453Z,70.64
2019-03-17T03:11:03.452Z,71.08
2019-03-17T03:12:03.419Z,70.46
2019-03-17T03:13:03.414Z,70.67
2019-03-17T03:14:03.398Z,70.36
2019-03-17T03:15:03.379Z,70.67
2019-03-17T03:16:05.793Z,70.56
2019-03-17T03:17:03.365Z,70.43
2019-03-17T03:18:03.361Z,70.26
2019-03-17T03:19:03.421Z,70.26
2019-03-17T03:20:03.331Z,70.26
2019-03-17T03:21:03.341Z,70.26
2019-03-17T03:22:03.322Z,70.22
2019-03-17T03:23:03.293Z,70.26
2019-03-17T03:24:03.303Z,70.46
2019-03-17T03:25:03.284Z,70.64
2019-03-17T03:26:03.276Z,70.67
2019-03-17T03:27:03.254Z,70.46
2019-03-17T03:28:03.238Z,69.84
2019-03-17T03:29:03.228Z,70.26
2019-03-17T03:30:03.226Z,70.05
2019-03-17T03:31:03.264Z,69.81
2019-03-17T03:32:03.210Z,70.36
2019-03-17T03:33:03.193Z,70.46
2019-03-17T03:34:03.179Z,70.15
2019-03-17T03:35:03.195Z,69.95
2019-03-17T03:36:10.824Z,70.02
2019-03-17T03:37:04.193Z,70.26
2019-03-17T03:38:03.131Z,70.56
2019-03-17T03:39:03.124Z,70.64
2019-03-17T03:40:03.101Z,69.23
2019-03-17T03:41:03.104Z,70.26
2019-03-17T03:42:03.109Z,70.36
2019-03-17T03:43:03.074Z,70.46
2019-03-17T03:44:03.065Z,70.46
2019-03-17T03:45:03.059Z,70.67
2019-03-17T03:46:03.044Z,70.46
2019-03-17T03:47:03.049Z,70.67
2019-03-17T03:48:03.034Z,70.26
2019-03-17T03:49:03.014Z,70.56
2019-03-17T03:50:03.000Z,70.26
2019-03-17T03:51:02.985Z,70.67
2019-03-17T03:52:02.991Z,70.26
2019-03-17T03:53:02.976Z,70.46
2019-03-17T03:54:02.953Z,70.46
2019-03-17T03:55:02.951Z,70.46
2019-03-17T03:56:02.944Z,70.56
2019-03-17T03:57:02.983Z,70.90
2019-03-17T03:58:02.919Z,70.67
2019-03-17T03:59:02.914Z,70.77
2019-03-17T04:00:02.893Z,70.77
2019-03-17T04:01:02.881Z,70.77
2019-03-17T04:02:02.912Z,70.67
2019-03-17T04:03:02.854Z,70.70
2019-03-17T04:04:02.846Z,70.67
2019-03-17T04:05:02.834Z,71.11
2019-03-17T04:06:02.826Z,70.87
2019-03-17T04:07:02.822Z,71.01
2019-03-17T04:08:02.802Z,71.08
2019-03-17T04:09:02.789Z,71.18
2019-03-17T04:10:02.778Z,71.08
2019-03-17T04:11:02.780Z,71.08
2019-03-17T04:12:02.779Z,71.48
2019-03-17T04:13:02.751Z,71.28
2019-03-17T04:14:02.742Z,71.31
2019-03-17T04:15:02.727Z,71.52
2019-03-17T04:16:02.711Z,71.48
2019-03-17T04:17:02.720Z,71.28
2019-03-17T04:18:02.685Z,71.21
2019-03-17T04:19:02.680Z,71.42
2019-03-17T04:20:02.670Z,71.31
2019-03-17T04:21:02.673Z,71.08
2019-03-17T04:22:02.678Z,71.39
2019-03-17T04:23:02.637Z,71.69
2019-03-17T04:24:02.633Z,71.59
2019-03-17T04:25:02.618Z,71.62
2019-03-17T04:26:02.602Z,71.80
2019-03-17T04:27:02.599Z,71.59
2019-03-17T04:28:02.607Z,71.80
2019-03-17T04:29:02.571Z,71.59
2019-03-17T04:30:02.557Z,71.80
2019-03-17T04:31:02.557Z,71.62
2019-03-17T04:32:02.538Z,71.72
2019-03-17T04:33:02.541Z,71.62
2019-03-17T04:34:02.515Z,71.72
2019-03-17T04:35:02.668Z,71.62
2019-03-17T04:36:02.492Z,71.72
2019-03-17T04:37:02.478Z,71.83
2019-03-17T04:38:02.485Z,72.03
2019-03-17T04:39:02.468Z,71.72
2019-03-17T04:40:02.456Z,71.62
2019-03-17T04:41:02.435Z,71.93
2019-03-17T04:42:02.440Z,71.52
2019-03-17T04:43:02.427Z,71.83
2019-03-17T04:44:02.405Z,71.69
2019-03-17T04:45:02.401Z,72.03
2019-03-17T04:46:02.381Z,71.72
2019-03-17T04:47:02.366Z,72.14
2019-03-17T04:48:02.451Z,71.48
2019-03-17T04:49:02.353Z,71.83
2019-03-17T04:50:02.346Z,71.93
2019-03-17T04:51:02.324Z,72.03
2019-03-17T04:52:02.316Z,71.93
2019-03-17T04:53:02.325Z,72.03
2019-03-17T04:54:02.290Z,72.03
2019-03-17T04:55:02.286Z,71.72
2019-03-17T04:56:02.266Z,71.80
2019-03-17T04:57:02.266Z,71.72
2019-03-17T04:58:02.278Z,71.62
2019-03-17T04:59:02.233Z,71.62
2019-03-17T05:00:02.227Z,71.52
2019-03-17T05:01:02.252Z,71.72
2019-03-17T05:02:02.202Z,71.93
2019-03-17T05:03:02.216Z,71.52
2019-03-17T05:04:02.182Z,71.69
2019-03-17T05:05:02.171Z,71.59
2019-03-17T05:06:02.162Z,71.83
2019-03-17T05:07:02.156Z,71.72
2019-03-17T05:08:02.169Z,71.72
2019-03-17T05:09:02.126Z,71.69
2019-03-17T05:10:02.119Z,71.21
2019-03-17T05:11:02.103Z,71.21
2019-03-17T05:12:02.093Z,71.52
2019-03-17T05:13:02.102Z,71.69
2019-03-17T05:14:02.112Z,71.52
2019-03-17T05:15:02.057Z,71.52
2019-03-17T05:16:02.050Z,71.52
2019-03-17T05:17:02.044Z,71.31
2019-03-17T05:18:02.054Z,71.21
2019-03-17T05:19:02.017Z,71.52
2019-03-17T05:20:02.007Z,71.52
2019-03-17T05:21:02.002Z,71.59
2019-03-17T05:22:01.990Z,71.83
2019-03-17T05:23:01.997Z,71.52
2019-03-17T05:24:01.965Z,71.48
2019-03-17T05:25:01.947Z,71.72
2019-03-17T05:26:01.951Z,71.62
2019-03-17T05:27:01.923Z,71.80
2019-03-17T05:28:02.004Z,71.59
2019-03-17T05:29:01.940Z,71.69
2019-03-17T05:30:01.893Z,71.39
2019-03-17T05:31:01.887Z,71.28
2019-03-17T05:32:01.879Z,71.39
2019-03-17T05:33:01.924Z,71.28
2019-03-17T05:34:01.875Z,71.08
2019-03-17T05:35:01.853Z,71.08
2019-03-17T05:36:01.830Z,71.08
2019-03-17T05:37:06.671Z,71.18
2019-03-17T05:38:02.830Z,71.18
2019-03-17T05:39:01.842Z,70.97
2019-03-17T05:40:01.786Z,70.97
2019-03-17T05:41:01.786Z,71.08
2019-03-17T05:42:01.778Z,70.77
2019-03-17T05:43:01.799Z,70.67
2019-03-17T05:44:01.838Z,70.87
2019-03-17T05:45:01.747Z,70.67
2019-03-17T05:46:01.737Z,70.87
2019-03-17T05:47:01.705Z,70.87
2019-03-17T05:48:01.703Z,70.67
2019-03-17T05:49:01.704Z,70.77
2019-03-17T05:50:01.676Z,70.77
2019-03-17T05:51:01.668Z,70.77
2019-03-17T05:52:01.664Z,70.67
2019-03-17T05:53:01.641Z,70.87
2019-03-17T05:54:01.671Z,71.08
2019-03-17T05:55:01.624Z,70.67
2019-03-17T05:56:01.610Z,70.77
2019-03-17T05:57:01.595Z,70.67
2019-03-17T05:58:01.590Z,70.46
2019-03-17T05:59:01.607Z,70.67
2019-03-17T06:00:01.566Z,70.67
2019-03-17T06:01:01.560Z,70.67
2019-03-17T06:02:01.545Z,70.67
2019-03-17T06:03:01.539Z,70.77
2019-03-17T06:04:01.539Z,70.77
2019-03-17T06:05:01.509Z,70.64
2019-03-17T06:06:01.502Z,70.56
2019-03-17T06:07:01.488Z,70.87
2019-03-17T06:08:01.474Z,70.46
2019-03-17T06:09:01.473Z,70.67
2019-03-17T06:10:01.448Z,70.56
2019-03-17T06:11:01.440Z,70.53
2019-03-17T06:12:01.431Z,70.46
2019-03-17T06:13:01.418Z,70.36
2019-03-17T06:14:01.431Z,70.26
2019-03-17T06:15:01.412Z,70.87
2019-03-17T06:16:01.406Z,70.43
2019-03-17T06:17:01.377Z,70.56
2019-03-17T06:18:01.367Z,70.22
2019-03-17T06:19:01.369Z,70.22
2019-03-17T06:20:01.356Z,70.53
2019-03-17T06:21:01.327Z,70.12
2019-03-17T06:22:01.324Z,69.81
2019-03-17T06:23:01.313Z,70.15
2019-03-17T06:24:01.295Z,70.64
2019-03-17T06:25:01.312Z,70.46
2019-03-17T06:26:01.281Z,70.12
2019-03-17T06:27:01.269Z,70.22
2019-03-17T06:28:01.259Z,69.81
2019-03-17T06:29:01.247Z,70.22
2019-03-17T06:30:01.244Z,69.92
2019-03-17T06:31:01.226Z,69.92
2019-03-17T06:32:01.223Z,70.02
2019-03-17T06:33:01.208Z,70.64
2019-03-17T06:34:01.264Z,70.64
2019-03-17T06:35:01.192Z,70.73
2019-03-17T06:36:01.169Z,71.76
2019-03-17T06:37:01.157Z,70.94
2019-03-17T06:38:01.159Z,71.25
2019-03-17T06:39:01.141Z,71.15
2019-03-17T06:40:01.133Z,70.70
2019-03-17T06:41:04.105Z,70.60
2019-03-17T06:42:01.109Z,70.40
2019-03-17T06:43:01.100Z,70.29
2019-03-17T06:44:01.075Z,70.81
2019-03-17T06:45:01.086Z,70.70
2019-03-17T06:46:01.062Z,69.98
2019-03-17T06:47:01.051Z,70.19
2019-03-17T06:48:01.041Z,69.57
2019-03-17T06:49:01.035Z,69.40
2019-03-17T06:50:01.067Z,69.68
2019-03-17T06:51:01.004Z,70.02
2019-03-17T06:52:00.992Z,70.22
2019-03-17T06:53:00.994Z,70.02
2019-03-17T06:54:00.966Z,69.81
2019-03-17T06:55:01.011Z,70.02
2019-03-17T06:56:00.944Z,70.43
2019-03-17T06:57:00.952Z,70.02
2019-03-17T06:58:00.924Z,70.02
2019-03-17T06:59:00.932Z,70.43
2019-03-17T07:00:00.916Z,70.12
2019-03-17T07:01:00.895Z,70.22
2019-03-17T07:02:00.881Z,70.53
2019-03-17T07:03:00.864Z,70.53
2019-03-17T07:04:00.856Z,70.43
2019-03-17T07:05:00.863Z,70.22
2019-03-17T07:06:00.872Z,70.43
2019-03-17T07:07:00.816Z,70.43
2019-03-17T07:08:00.817Z,70.29
2019-03-17T07:09:00.799Z,70.29
2019-03-17T07:10:00.802Z,70.50
2019-03-17T07:11:00.791Z,70.29
2019-03-17T07:12:00.803Z,70.64
2019-03-17T07:13:00.753Z,70.43
2019-03-17T07:14:00.738Z,70.50
2019-03-17T07:15:00.758Z,70.40
2019-03-17T07:16:00.718Z,70.19
2019-03-17T07:17:00.741Z,70.81
2019-03-17T07:18:00.698Z,70.70
2019-03-17T07:19:00.690Z,70.70
2019-03-17T07:20:00.690Z,70.40
2019-03-17T07:21:00.684Z,70.60
2019-03-17T07:22:00.665Z,70.50
2019-03-17T07:23:00.662Z,70.40
2019-03-17T07:24:00.666Z,70.60
2019-03-17T07:25:00.665Z,70.70
2019-03-17T07:26:00.625Z,70.60
2019-03-17T07:27:00.656Z,70.60
2019-03-17T07:28:00.615Z,70.50
2019-03-17T07:29:00.668Z,70.70
2019-03-17T07:30:00.681Z,70.70
2019-03-17T07:31:00.566Z,70.29
2019-03-17T07:32:00.544Z,70.60
2019-03-17T07:33:00.535Z,70.50
2019-03-17T07:34:00.518Z,70.29
2019-03-17T07:35:00.619Z,70.70
2019-03-17T07:36:00.524Z,70.40
2019-03-17T07:37:00.488Z,70.60
2019-03-17T07:38:00.485Z,70.70
2019-03-17T07:39:11.187Z,70.70
2019-03-17T07:40:01.462Z,70.77
2019-03-17T07:41:00.479Z,70.60
2019-03-17T07:42:00.459Z,70.67
2019-03-17T07:43:00.514Z,70.40
2019-03-17T07:44:00.409Z,70.19
2019-03-17T07:45:00.402Z,70.16
2019-03-17T07:46:00.416Z,70.40
2019-03-17T07:47:00.383Z,70.50
2019-03-17T07:48:00.367Z,69.98
2019-03-17T07:49:00.364Z,69.34
2019-03-17T07:50:00.391Z,69.89
2019-03-17T07:51:00.351Z,70.06
2019-03-17T07:52:00.318Z,69.24
2019-03-17T07:53:00.317Z,69.95
2019-03-17T07:54:00.301Z,69.95
2019-03-17T07:55:00.381Z,69.34
2019-03-17T07:56:00.304Z,69.34
2019-03-17T07:57:00.309Z,70.67
2019-03-17T07:58:00.257Z,70.03
2019-03-17T07:59:00.246Z,70.06
2019-03-17T08:00:00.369Z,70.03
2019-03-17T08:01:01.277Z,70.23
2019-03-17T08:02:00.229Z,70.09
2019-03-17T08:03:00.230Z,69.82
2019-03-17T08:04:00.186Z,77.22
2019-03-17T08:05:00.360Z,73.20
2019-03-17T08:06:00.197Z,74.32
2019-03-17T08:07:00.189Z,73.36
2019-03-17T08:08:09.247Z,70.40
2019-03-17T08:09:01.149Z,70.00
2019-03-17T08:10:00.381Z,67.24
2019-03-17T08:11:00.126Z,69.07
2019-03-17T08:12:00.103Z,71.22
2019-03-17T08:13:00.154Z,70.68
2019-03-17T08:14:00.094Z,66.80
2019-03-17T08:15:00.068Z,65.88
2019-03-17T08:16:00.074Z,65.47
2019-03-17T08:17:00.038Z,65.70
2019-03-17T08:18:00.043Z,65.50
2019-03-17T08:19:00.028Z,66.01
2019-03-17T08:20:00.031Z,66.01
2019-03-17T08:21:00.019Z,65.30
2019-03-17T08:21:59.995Z,65.40
2019-03-17T08:22:59.975Z,65.19
2019-03-17T08:24:00.025Z,65.50
2019-03-17T08:25:00.476Z,65.57
2019-03-17T08:25:59.978Z,65.70
2019-03-17T08:26:59.934Z,65.37
2019-03-17T08:27:59.920Z,65.26
2019-03-17T08:28:59.948Z,64.86
2019-03-17T08:29:59.929Z,65.47
2019-03-17T08:30:59.918Z,64.45
2019-03-17T08:31:59.879Z,64.55
2019-03-17T08:32:59.868Z,64.86
2019-03-17T08:33:59.861Z,63.73
2019-03-17T08:34:59.844Z,63.83
2019-03-17T08:35:59.869Z,64.75
2019-03-17T08:36:59.833Z,64.04
2019-03-17T08:37:59.806Z,63.81
2019-03-17T08:38:59.969Z,64.42
2019-03-17T08:39:59.803Z,63.40
2019-03-17T08:40:59.798Z,63.49
2019-03-17T08:41:59.783Z,63.16
2019-03-17T08:42:59.747Z,63.81
2019-03-17T08:43:59.754Z,64.11
2019-03-17T08:44:59.730Z,63.09
2019-03-17T08:45:59.778Z,62.58
2019-03-17T08:46:59.725Z,63.06
2019-03-17T08:47:59.696Z,62.55
2019-03-17T08:48:59.681Z,62.42
2019-03-17T08:49:59.672Z,61.83
2019-03-17T08:50:59.666Z,62.82
2019-03-17T08:51:59.666Z,62.11
2019-03-17T08:52:59.669Z,61.91
2019-03-17T08:53:59.626Z,61.91
2019-03-17T08:54:59.618Z,61.09
2019-03-17T08:55:59.608Z,61.50
2019-03-17T08:56:59.605Z,61.19
2019-03-17T08:57:59.587Z,61.50
2019-03-17T08:58:59.605Z,61.40
2019-03-17T08:59:59.560Z,61.37
2019-03-17T09:00:59.539Z,60.69
2019-03-17T09:01:59.569Z,60.66
2019-03-17T09:02:59.544Z,61.27
2019-03-17T09:03:59.514Z,61.27
2019-03-17T09:04:59.503Z,61.07
2019-03-17T09:05:59.495Z,61.07
2019-03-17T09:06:59.502Z,60.12
2019-03-17T09:07:59.477Z,59.53
2019-03-17T09:08:59.458Z,60.96
2019-03-17T09:09:59.450Z,60.66
2019-03-17T09:10:59.446Z,60.76
2019-03-17T09:11:59.542Z,60.53
2019-03-17T09:12:59.421Z,60.63
2019-03-17T09:13:59.408Z,60.53
2019-03-17T09:14:59.398Z,60.42
2019-03-17T09:15:59.379Z,60.12
2019-03-17T09:16:59.403Z,59.91
2019-03-17T09:17:59.356Z,59.89
2019-03-17T09:18:59.360Z,59.48
2019-03-17T09:19:59.338Z,59.71
2019-03-17T09:20:59.335Z,59.68
2019-03-17T09:21:59.334Z,59.38
2019-03-17T09:22:59.304Z,59.30
2019-03-17T09:23:59.311Z,59.71
2019-03-17T09:24:59.277Z,59.07
2019-03-17T09:25:59.266Z,59.99
2019-03-17T09:26:59.279Z,59.28
2019-03-17T09:27:59.251Z,59.17
2019-03-17T09:28:59.236Z,58.76
2019-03-17T09:29:59.234Z,58.56
2019-03-17T09:30:59.211Z,58.74
2019-03-17T09:31:59.232Z,57.72
2019-03-17T09:32:59.222Z,58.64
2019-03-17T09:33:59.220Z,57.92
2019-03-17T09:34:59.170Z,58.13
2019-03-17T09:35:59.160Z,58.23
2019-03-17T09:36:59.145Z,64.64
2019-03-17T09:37:59.158Z,64.00
2019-03-17T09:38:59.127Z,62.24
2019-03-17T09:39:59.107Z,62.85
2019-03-17T09:40:59.105Z,61.83
2019-03-17T09:41:59.125Z,59.67
2019-03-17T09:42:59.108Z,59.37
2019-03-17T09:43:59.077Z,60.56
2019-03-17T09:44:59.063Z,60.76
2019-03-17T09:45:59.049Z,59.44
2019-03-17T09:46:59.050Z,60.43
2019-03-17T09:47:59.050Z,59.01
2019-03-17T09:48:59.041Z,59.31
2019-03-17T09:49:59.045Z,56.65
2019-03-17T09:50:58.993Z,58.27
2019-03-17T09:51:58.984Z,57.93
2019-03-17T09:52:58.993Z,57.23
2019-03-17T09:53:58.959Z,55.71
2019-03-17T09:54:58.950Z,55.30
2019-03-17T09:55:58.953Z,57.53
2019-03-17T09:56:58.934Z,55.50
2019-03-17T09:57:58.926Z,56.21
2019-03-17T09:58:58.939Z,55.02
2019-03-17T09:59:58.894Z,55.91
2019-03-17T10:00:58.896Z,56.01
2019-03-17T10:01:58.908Z,55.83
2019-03-17T10:02:58.947Z,55.93
2019-03-17T10:03:58.852Z,55.20
2019-03-17T10:04:58.837Z,56.13
2019-03-17T10:05:58.824Z,55.73
2019-03-17T10:06:58.826Z,55.93
2019-03-17T10:07:58.825Z,55.43
2019-03-17T10:09:00.215Z,54.51
2019-03-17T10:09:58.808Z,53.80
2019-03-17T10:10:58.764Z,55.25
2019-03-17T10:11:58.760Z,56.06
2019-03-17T10:12:58.780Z,55.76
2019-03-17T10:13:58.735Z,57.18
2019-03-17T10:14:58.719Z,55.96
2019-03-17T10:15:58.713Z,55.96
2019-03-17T10:16:58.722Z,57.28
2019-03-17T10:17:58.704Z,55.96
2019-03-17T10:18:58.676Z,56.06
2019-03-17T10:19:58.669Z,55.76
2019-03-17T10:20:58.648Z,55.76
2019-03-17T10:21:58.649Z,55.15
2019-03-17T10:22:58.666Z,54.94
2019-03-17T10:23:58.618Z,55.45
2019-03-17T10:24:58.610Z,55.66
2019-03-17T10:25:58.599Z,55.55
2019-03-17T10:26:58.594Z,55.76
2019-03-17T10:27:58.628Z,56.06
2019-03-17T10:28:58.570Z,55.66
2019-03-17T10:29:58.547Z,56.16
2019-03-17T10:30:58.547Z,55.27
2019-03-17T10:31:58.537Z,55.15
2019-03-17T10:32:58.536Z,55.78
2019-03-17T10:33:58.523Z,55.78
2019-03-17T10:34:58.493Z,56.29
2019-03-17T10:35:58.485Z,56.19
2019-03-17T10:36:58.470Z,55.99
2019-03-17T10:37:58.478Z,56.29
2019-03-17T10:38:58.457Z,55.88
2019-03-17T10:39:58.454Z,55.99
2019-03-17T10:40:58.425Z,55.99
2019-03-17T10:41:58.420Z,56.73
2019-03-17T10:42:58.425Z,56.09
2019-03-17T10:43:58.452Z,55.78
2019-03-17T10:44:58.391Z,55.60
2019-03-17T10:45:58.395Z,55.51
2019-03-17T10:46:58.364Z,56.21
2019-03-17T10:47:58.370Z,56.32
2019-03-17T10:48:58.362Z,56.01
2019-03-17T10:49:58.349Z,56.01
2019-03-17T10:50:58.315Z,56.12
2019-03-17T10:51:58.324Z,56.24
2019-03-17T10:52:58.296Z,56.34
2019-03-17T10:53:58.282Z,56.04
2019-03-17T10:54:58.289Z,56.04
2019-03-17T10:55:58.262Z,56.04
2019-03-17T10:56:58.330Z,56.45
2019-03-17T10:57:58.276Z,55.94
2019-03-17T10:58:58.227Z,56.24
2019-03-17T10:59:58.222Z,55.94
2019-03-17T11:00:58.205Z,55.83
2019-03-17T11:01:58.202Z,56.04
2019-03-17T11:02:58.207Z,55.83
2019-03-17T11:03:58.259Z,55.94
2019-03-17T11:04:58.157Z,55.81
2019-03-17T11:05:58.138Z,56.01
2019-03-17T11:06:58.143Z,56.24
2019-03-17T11:07:58.155Z,55.63
2019-03-17T11:08:58.138Z,56.65
2019-03-17T11:09:58.093Z,56.14
2019-03-17T11:10:58.085Z,56.75
2019-03-17T11:11:58.103Z,57.26
2019-03-17T11:12:58.085Z,57.56
2019-03-17T11:13:58.074Z,56.95
2019-03-17T11:14:58.052Z,56.75
2019-03-17T11:15:58.053Z,56.95
2019-03-17T11:16:58.026Z,57.46
2019-03-17T11:17:58.029Z,56.85
2019-03-17T11:18:58.212Z,57.67
2019-03-17T11:19:57.983Z,57.18
2019-03-17T11:20:57.996Z,57.39
2019-03-17T11:21:58.001Z,57.59
2019-03-17T11:22:57.942Z,57.69
2019-03-17T11:23:57.954Z,57.39
2019-03-17T11:24:57.935Z,57.59
2019-03-17T11:25:57.917Z,57.59
2019-03-17T11:26:57.908Z,57.69
2019-03-17T11:27:57.890Z,57.59
2019-03-17T11:28:57.950Z,57.69
2019-03-17T11:29:57.876Z,57.69
2019-03-17T11:30:57.900Z,57.59
2019-03-17T11:31:57.845Z,57.39
2019-03-17T11:32:57.925Z,57.49
2019-03-17T11:33:57.852Z,57.49
2019-03-17T11:34:57.863Z,57.39
2019-03-17T11:35:57.811Z,58.51
2019-03-17T11:36:57.829Z,57.59
2019-03-17T11:37:57.778Z,57.18
2019-03-17T11:38:57.841Z,56.77
2019-03-17T11:39:57.750Z,57.69
2019-03-17T11:40:57.738Z,57.49
2019-03-17T11:41:57.732Z,57.18
2019-03-17T11:42:57.717Z,58.51
2019-03-17T11:43:57.734Z,58.40
2019-03-17T11:44:57.735Z,58.20
2019-03-17T11:45:57.692Z,58.40
2019-03-17T11:46:57.692Z,58.00
2019-03-17T11:47:57.663Z,57.90
2019-03-17T11:48:57.701Z,57.90
2019-03-17T11:49:57.644Z,58.00
2019-03-17T11:50:57.635Z,57.90
2019-03-17T11:51:57.630Z,57.69
2019-03-17T11:52:57.601Z,58.10
2019-03-17T11:53:57.620Z,57.39
2019-03-17T11:54:57.581Z,56.27
2019-03-17T11:55:57.577Z,57.59
2019-03-17T11:56:57.562Z,58.40
2019-03-17T11:57:57.556Z,57.49
2019-03-17T11:58:57.557Z,58.10
2019-03-17T11:59:57.571Z,58.00
2019-03-17T12:00:57.529Z,58.10
2019-03-17T12:01:57.516Z,58.00
2019-03-17T12:02:57.540Z,58.30
2019-03-17T12:03:57.497Z,58.20
2019-03-17T12:04:57.497Z,58.00
2019-03-17T12:05:57.496Z,57.49
2019-03-17T12:06:57.458Z,58.10
2019-03-17T12:07:57.438Z,58.20
2019-03-17T12:08:57.436Z,59.45
2019-03-17T12:09:57.447Z,58.03
2019-03-17T12:10:57.431Z,56.98
2019-03-17T12:11:57.460Z,57.39
2019-03-17T12:12:57.398Z,57.62
2019-03-17T12:13:57.446Z,57.62
2019-03-17T12:14:57.404Z,58.03
2019-03-17T12:15:57.350Z,58.33
2019-03-17T12:16:57.346Z,58.23
2019-03-17T12:17:57.447Z,58.33
2019-03-17T12:18:57.315Z,58.53
2019-03-17T12:19:57.329Z,58.03
2019-03-17T12:20:57.302Z,58.03
2019-03-17T12:22:08.506Z,58.13
2019-03-17T12:22:58.280Z,57.82
2019-03-17T12:23:57.261Z,57.72
2019-03-17T12:24:57.320Z,58.03
2019-03-17T12:25:57.247Z,58.15
2019-03-17T12:26:57.241Z,57.95
2019-03-17T12:27:57.215Z,57.75
2019-03-17T12:28:57.209Z,57.85
2019-03-17T12:29:57.226Z,58.05
2019-03-17T12:30:57.209Z,58.46
2019-03-17T12:31:57.187Z,58.97
2019-03-17T12:32:57.158Z,58.15
2019-03-17T12:33:57.145Z,58.36
2019-03-17T12:34:57.199Z,58.03
2019-03-17T12:35:57.145Z,57.75
2019-03-17T12:36:57.120Z,57.85
2019-03-17T12:37:57.110Z,59.07
2019-03-17T12:38:57.089Z,60.09
2019-03-17T12:40:02.336Z,61.08
2019-03-17T12:40:58.080Z,61.59
2019-03-17T12:41:57.068Z,61.29
2019-03-17T12:42:57.056Z,60.47
2019-03-17T12:43:57.039Z,59.25
2019-03-17T12:44:57.059Z,59.42
2019-03-17T12:45:57.010Z,60.14
2019-03-17T12:46:57.011Z,59.22
2019-03-17T12:47:57.058Z,58.10
2019-03-17T12:48:57.010Z,57.69
2019-03-17T12:49:57.020Z,57.39
2019-03-17T12:50:56.970Z,58.10
2019-03-17T12:51:56.978Z,57.69